Time;durP1;ratioP1;P1;durP2;ratioP2;P2;SDS_P1;SDS_P2;PMS_P1;PMS_P2;Temp;Humidity;BMP_temperature;BMP_pressure;BME280_temperature;BME280_humidity;BME280_pressure;Samples;Min_cycle;Max_cycle;Signal;HPM_P1;HPM_P2
2022/03/13 00:01:01;;;;;;;;;14.00;13.25;;;;;9.33;75.46;100456.38;5078020;28;45334;-77
2022/03/13 00:03:28;;;;;;;;;11.50;11.50;;;;;9.38;75.24;100478.28;5081127;28;45313;-80
2022/03/13 00:05:54;;;;;;;;;14.00;12.50;;;;;9.35;74.87;100469.50;5084389;28;45360;-78
2022/03/13 00:08:26;;;;;;;;;12.75;10.00;;;;;9.34;74.76;100458.13;5073494;28;46764;-81
2022/03/13 00:10:57;;;;;;;;;9.00;8.25;;;;;9.23;75.03;100464.16;5043200;28;45263;-81
2022/03/13 00:13:30;;;;;;;;;15.00;12.75;;;;;9.31;74.77;100467.75;5077904;28;45401;-82
2022/03/13 00:15:57;;;;;;;;;9.00;9.00;;;;;9.40;74.12;100467.81;5084003;28;45451;-83
2022/03/13 00:18:23;;;;;;;;;8.50;7.00;;;;;9.36;74.06;100452.88;5072837;28;46074;-82
2022/03/13 00:20:48;;;;;;;;;12.50;10.00;;;;;9.38;73.43;100451.13;5060488;28;45387;-82
2022/03/13 00:23:15;;;;;;;;;10.00;10.00;;;;;9.34;74.09;100459.88;5062805;28;45319;-83
2022/03/13 00:25:41;;;;;;;;;8.50;8.50;;;;;9.36;73.31;100472.16;5081019;28;45261;-82
2022/03/13 00:28:07;;;;;;;;;8.00;8.00;;;;;9.38;73.57;100454.63;5077631;28;45836;-82
2022/03/13 00:30:33;;;;;;;;;10.25;9.00;;;;;9.36;73.42;100452.88;5080420;28;45467;-82
2022/03/13 00:33:00;;;;;;;;;5.50;5.50;;;;;9.51;72.90;100462.63;5073079;28;45443;-83
2022/03/13 00:35:26;;;;;;;;;8.50;7.50;;;;;9.46;72.78;100452.06;5078896;28;45570;-83
2022/03/13 00:37:51;;;;;;;;;8.50;7.25;;;;;9.54;72.49;100463.53;5080837;28;46161;-82
2022/03/13 00:40:18;;;;;;;;;12.50;10.00;;;;;9.61;72.51;100469.72;5078034;28;45452;-83
2022/03/13 00:42:44;;;;;;;;;9.25;8.25;;;;;9.65;72.17;100458.31;5080669;28;45463;-83
2022/03/13 00:45:10;;;;;;;;;8.25;8.25;;;;;9.66;72.65;100460.09;5078440;28;45218;-78
2022/03/13 00:47:35;;;;;;;;;8.75;8.00;;;;;9.66;71.48;100454.81;5076753;28;45651;-78
2022/03/13 00:50:01;;;;;;;;;9.25;9.25;;;;;9.67;71.48;100449.56;5063408;28;45242;-81
2022/03/13 00:52:26;;;;;;;;;7.00;7.00;;;;;9.75;71.33;100448.75;5064621;28;45420;-80
2022/03/13 00:54:52;;;;;;;;;8.50;7.75;;;;;9.69;70.85;100445.22;5067489;28;45469;-79
2022/03/13 00:57:17;;;;;;;;;9.00;8.00;;;;;9.76;70.51;100445.25;5079853;28;45246;-77
2022/03/13 00:59:43;;;;;;;;;4.25;4.25;;;;;9.71;70.29;100450.50;5080453;28;45532;-78
2022/03/13 01:02:10;;;;;;;;;5.75;5.00;;;;;9.78;70.23;100452.28;5068661;28;45690;-80
2022/03/13 01:04:35;;;;;;;;;7.00;7.00;;;;;9.69;70.67;100439.09;5059048;28;45544;-77
2022/03/13 01:07:01;;;;;;;;;6.00;6.00;;;;;9.77;70.44;100450.53;5079815;28;45942;-78
2022/03/13 01:09:26;;;;;;;;;6.50;6.50;;;;;9.83;70.49;100462.81;5080849;28;45320;-79
2022/03/13 01:11:52;;;;;;;;;8.00;8.00;;;;;9.82;70.02;100445.28;5078248;28;45523;-81
2022/03/13 01:14:20;;;;;;;;;8.00;8.00;;;;;9.60;69.78;100389.94;5080736;28;45422;-79
2022/03/13 01:16:45;;;;;;;;;7.00;7.00;;;;;9.88;68.94;100445.34;5075784;28;46333;-78
2022/03/13 01:19:11;;;;;;;;;5.50;5.50;;;;;9.95;69.78;100442.72;5060062;28;45255;-81
2022/03/13 01:21:38;;;;;;;;;7.00;6.50;;;;;9.89;69.81;100437.44;5059032;28;45378;-80
2022/03/13 01:24:09;;;;;;;;;9.00;6.00;;;;;9.89;69.52;100436.56;5080000;28;45402;-78
2022/03/13 01:26:37;;;;;;;;;6.00;4.75;;;;;9.90;69.13;100433.94;5080952;28;46048;-78
2022/03/13 01:29:05;;;;;;;;;5.25;5.25;;;;;9.84;69.37;100425.13;5082601;28;45232;-81
2022/03/13 01:31:34;;;;;;;;;3.00;3.00;;;;;9.88;67.89;100424.28;5077768;28;45568;-76
2022/03/13 01:34:00;;;;;;;;;6.50;4.00;;;;;9.77;69.17;100407.53;5058090;28;45354;-82
2022/03/13 01:36:26;;;;;;;;;3.50;2.00;;;;;9.91;68.32;100417.28;5059716;28;45575;-82
2022/03/13 01:38:54;;;;;;;;;7.25;4.00;;;;;9.81;67.69;100404.06;5079173;28;45182;-80
2022/03/13 01:41:24;;;;;;;;;5.50;4.75;;;;;9.93;67.91;100417.28;5079753;28;45301;-81
2022/03/13 01:43:50;;;;;;;;;6.75;6.75;;;;;9.96;68.23;100401.53;5076365;28;45418;-78
2022/03/13 01:46:16;;;;;;;;;6.25;6.25;;;;;9.85;68.07;100371.63;5075705;28;45616;-82
2022/03/13 01:49:04;;;;;;;;;6.50;6.00;;;;;10.08;67.58;100408.59;5074402;28;45196;-81
2022/03/13 01:51:31;;;;;;;;;6.00;6.00;;;;;9.94;67.68;100390.09;5086551;28;45439;-80
2022/03/13 01:54:01;;;;;;;;;8.50;6.50;;;;;10.04;68.16;100398.91;5079898;28;45250;-82
2022/03/13 01:56:29;;;;;;;;;5.00;5.00;;;;;9.84;67.62;100372.50;5080192;28;46170;-81
2022/03/13 01:58:55;;;;;;;;;7.25;7.00;;;;;10.07;68.31;100406.84;5076649;28;45438;-81
2022/03/13 02:01:25;;;;;;;;;6.50;4.50;;;;;10.01;67.79;100391.88;5074947;28;45320;-81
2022/03/13 02:03:51;;;;;;;;;7.75;7.75;;;;;10.02;68.39;100390.13;5067022;28;45246;-79
2022/03/13 02:06:17;;;;;;;;;9.25;8.00;;;;;10.08;68.14;100396.31;5080779;28;45260;-81
2022/03/13 02:08:47;;;;;;;;;10.00;7.50;;;;;10.04;68.26;100391.88;5078420;28;45459;-78
2022/03/13 02:11:19;;;;;;;;;9.50;8.25;;;;;10.03;68.17;100384.00;5073063;28;45381;-79
2022/03/13 02:13:49;;;;;;;;;9.00;7.25;;;;;10.04;68.28;100388.38;5064227;28;45412;-79
2022/03/13 02:16:16;;;;;;;;;5.50;5.50;;;;;9.99;68.29;100380.47;5081088;28;45274;-79
2022/03/13 02:18:46;;;;;;;;;8.25;8.25;;;;;9.88;68.64;100372.53;5080755;28;45341;-80
2022/03/13 02:21:12;;;;;;;;;7.00;7.00;;;;;9.76;68.93;100380.34;5076556;28;45411;-79
2022/03/13 02:23:37;;;;;;;;;12.50;10.00;;;;;9.64;69.14;100377.69;5076634;28;45263;-80
2022/03/13 02:26:05;;;;;;;;;9.50;7.50;;;;;9.53;69.74;100359.22;5069501;28;45694;-78
2022/03/13 02:28:33;;;;;;;;;4.00;4.00;;;;;9.45;69.72;100366.16;5058869;28;45231;-77
2022/03/13 02:31:05;;;;;;;;;9.00;9.00;;;;;9.42;70.31;100366.16;5058093;28;45472;-79
2022/03/13 02:33:31;;;;;;;;;9.25;7.75;;;;;9.33;70.32;100361.72;5059598;28;45270;-79
2022/03/13 02:35:59;;;;;;;;;8.50;8.50;;;;;9.17;71.10;100348.47;5075168;28;45343;-78
2022/03/13 02:38:27;;;;;;;;;10.75;7.75;;;;;9.08;70.82;100334.41;5060155;28;45498;-79
2022/03/13 02:40:53;;;;;;;;;12.00;10.25;;;;;9.10;70.96;100343.16;5076517;28;45443;-78
2022/03/13 02:43:19;;;;;;;;;9.50;8.00;;;;;9.12;71.14;100343.19;5078809;28;45198;-80
2022/03/13 02:45:44;;;;;;;;;11.25;11.25;;;;;9.09;70.95;100330.91;5076862;28;45325;-79
2022/03/13 02:48:11;;;;;;;;;9.75;8.00;;;;;9.10;71.43;100344.91;5075102;28;45160;-79
2022/03/13 02:50:38;;;;;;;;;9.50;9.25;;;;;9.09;71.43;100336.16;5058256;28;45242;-80
2022/03/13 02:53:05;;;;;;;;;9.00;9.00;;;;;9.08;71.12;100338.78;5074390;28;45345;-78
2022/03/13 02:55:31;;;;;;;;;5.50;4.00;;;;;9.03;71.18;100330.88;5074733;28;46428;-78
2022/03/13 02:57:57;;;;;;;;;14.75;14.00;;;;;9.01;71.37;100336.97;5101434;28;44818;-79
2022/03/13 03:00:47;;;;;;;;;11.75;11.25;;;;;8.75;70.68;100292.13;5098732;28;44695;-78
2022/03/13 03:03:13;;;;;;;;;10.25;9.00;;;;;8.92;71.03;100340.41;5080795;28;45515;-80
2022/03/13 03:05:39;;;;;;;;;13.50;13.50;;;;;8.90;71.50;100333.38;5079772;28;45488;-79
2022/03/13 03:08:04;;;;;;;;;9.75;9.75;;;;;8.88;71.32;100322.88;5083640;28;45365;-78
2022/03/13 03:10:30;;;;;;;;;9.50;9.50;;;;;8.88;71.05;100332.50;5087829;28;45379;-78
2022/03/13 03:12:55;;;;;;;;;12.25;12.25;;;;;8.83;71.46;100335.06;5078861;28;45530;-78
2022/03/13 03:15:22;;;;;;;;;17.75;15.25;;;;;8.85;71.82;100330.75;5077010;28;45471;-81
2022/03/13 03:17:48;;;;;;;;;9.00;8.00;;;;;8.84;70.94;100332.47;5068203;28;45300;-82
2022/03/13 03:20:14;;;;;;;;;8.75;7.75;;;;;8.83;71.33;100325.44;5057984;28;45209;-79
2022/03/13 03:22:40;;;;;;;;;11.50;9.50;;;;;8.76;70.83;100325.41;5058263;28;45295;-78
2022/03/13 03:25:06;;;;;;;;;11.50;11.50;;;;;8.71;71.46;100325.34;5074113;28;45566;-82
2022/03/13 03:27:31;;;;;;;;;14.25;11.25;;;;;8.72;71.65;100323.59;5073434;28;45272;-81
2022/03/13 03:29:58;;;;;;;;;8.25;7.50;;;;;8.73;71.07;100322.75;5078262;28;45337;-82
2022/03/13 03:32:24;;;;;;;;;13.75;11.50;;;;;8.73;70.73;100325.38;5081184;28;45388;-84
2022/03/13 03:34:49;;;;;;;;;12.50;11.50;;;;;8.59;71.58;100295.50;5082033;28;45352;-83
2022/03/13 03:37:15;;;;;;;;;9.75;9.75;;;;;8.70;71.41;100323.59;5075370;28;45270;-78
2022/03/13 03:39:40;;;;;;;;;10.50;10.50;;;;;8.68;70.87;100322.72;5075168;28;45502;-76
2022/03/13 03:42:06;;;;;;;;;12.50;11.00;;;;;8.68;70.84;100320.09;5058183;28;45643;-78
2022/03/13 03:44:31;;;;;;;;;14.50;12.00;;;;;8.68;71.49;100327.97;5060355;28;46230;-79
2022/03/13 03:46:57;;;;;;;;;9.75;9.25;;;;;8.66;70.99;100316.59;5077382;28;45293;-81
2022/03/13 03:49:23;;;;;;;;;8.00;8.00;;;;;8.60;71.25;100307.75;5095061;27;45334;-81
2022/03/13 03:51:49;;;;;;;;;10.50;8.75;;;;;8.56;70.88;100315.63;5078411;28;45435;-78
2022/03/13 03:54:18;;;;;;;;;17.00;12.50;;;;;8.58;70.82;100313.00;5077752;28;45965;-77
2022/03/13 03:56:44;;;;;;;;;10.00;10.00;;;;;8.54;71.34;100311.19;5071846;28;45516;-83
2022/03/13 03:59:09;;;;;;;;;10.25;10.25;;;;;8.42;71.55;100298.84;5060498;28;45275;-83
2022/03/13 04:01:37;;;;;;;;;11.75;9.25;;;;;8.54;71.03;100311.19;5078381;28;45570;-82
2022/03/13 04:04:04;;;;;;;;;12.00;9.25;;;;;8.45;71.23;100303.25;5078305;28;46102;-81
2022/03/13 04:06:29;;;;;;;;;14.25;11.50;;;;;8.52;70.82;100308.56;5075814;28;45271;-83
2022/03/13 04:08:55;;;;;;;;;12.00;11.75;;;;;8.42;70.91;100292.72;5076846;28;45412;-82
2022/03/13 04:11:20;;;;;;;;;10.25;9.00;;;;;8.48;70.63;100308.53;5059390;28;45226;-83
2022/03/13 04:13:47;;;;;;;;;7.75;7.75;;;;;8.51;70.55;100309.44;5057853;28;45273;-83
2022/03/13 04:16:12;;;;;;;;;9.00;7.75;;;;;8.53;70.55;100318.19;5071889;28;45393;-82
2022/03/13 04:18:38;;;;;;;;;7.50;7.50;;;;;8.49;70.17;100307.69;5081484;28;45380;-83
2022/03/13 04:21:06;;;;;;;;;9.50;9.50;;;;;8.47;70.37;100312.03;5075676;28;45577;-82
2022/03/13 04:23:33;;;;;;;;;11.00;11.00;;;;;8.51;70.28;100312.06;5077380;28;45470;-82
2022/03/13 04:25:59;;;;;;;;;11.25;8.00;;;;;8.53;70.36;100312.06;5059693;28;45416;-81
2022/03/13 04:28:25;;;;;;;;;11.75;10.50;;;;;8.44;70.44;100309.38;5069846;28;45330;-83
2022/03/13 04:30:53;;;;;;;;;8.25;7.25;;;;;8.48;70.42;100312.03;5081276;28;45225;-83
2022/03/13 04:33:21;;;;;;;;;8.25;8.00;;;;;8.56;69.95;100320.88;5079794;28;46396;-82
2022/03/13 04:35:48;;;;;;;;;8.00;6.75;;;;;8.59;69.41;100327.88;5061182;28;45568;-82
2022/03/13 04:38:14;;;;;;;;;11.50;8.75;;;;;8.48;69.45;100316.41;5066881;28;45356;-83
2022/03/13 04:40:39;;;;;;;;;9.50;6.25;;;;;8.65;69.21;100327.03;5078589;28;45522;-83
2022/03/13 04:43:06;;;;;;;;;8.00;7.25;;;;;8.52;69.19;100308.56;5079401;28;46307;-83
2022/03/13 04:45:31;;;;;;;;;2.00;2.00;;;;;8.71;68.78;100327.97;5077593;28;45312;-83
2022/03/13 04:47:56;;;;;;;;;8.00;6.25;;;;;8.76;68.71;100330.66;5075172;28;45641;-81
2022/03/13 04:50:22;;;;;;;;;7.50;7.00;;;;;8.69;68.51;100324.47;5066607;28;45413;-82
2022/03/13 04:52:47;;;;;;;;;9.50;8.50;;;;;8.74;67.95;100325.38;5062067;28;46966;-83
2022/03/13 04:55:13;;;;;;;;;11.50;10.50;;;;;8.78;68.15;100331.56;5062358;28;45211;-83
2022/03/13 04:57:39;;;;;;;;;7.25;7.25;;;;;8.80;68.15;100327.19;5067661;28;45354;-82
2022/03/13 05:00:05;;;;;;;;;7.25;7.25;;;;;8.85;67.92;100328.09;5081632;28;45525;-81
2022/03/13 05:02:31;;;;;;;;;5.50;5.50;;;;;8.85;67.13;100330.75;5064105;28;46490;-80
2022/03/13 05:04:58;;;;;;;;;7.00;7.00;;;;;8.82;67.53;100309.69;5081498;28;45395;-79
2022/03/13 05:07:24;;;;;;;;;7.50;7.50;;;;;8.88;67.34;100320.25;5078309;28;45270;-83
2022/03/13 05:09:49;;;;;;;;;7.75;7.75;;;;;8.84;67.43;100306.22;5080556;28;45419;-81
2022/03/13 05:12:16;;;;;;;;;4.50;4.50;;;;;8.92;66.40;100322.00;5062467;28;47368;-82
2022/03/13 05:14:42;;;;;;;;;4.00;4.00;;;;;8.92;67.09;100310.63;5080389;28;45232;-78
2022/03/13 05:17:07;;;;;;;;;7.25;7.25;;;;;8.94;67.11;100316.78;5088134;28;45523;-77
2022/03/13 05:19:34;;;;;;;;;6.00;6.00;;;;;8.92;66.93;100306.25;5077880;28;45226;-77
2022/03/13 05:22:00;;;;;;;;;3.75;3.75;;;;;8.93;66.78;100308.00;5079764;28;46341;-80
2022/03/13 05:24:25;;;;;;;;;8.00;8.00;;;;;8.94;66.67;100314.16;5080601;28;45327;-79
2022/03/13 05:26:50;;;;;;;;;4.50;3.50;;;;;8.78;67.02;100287.78;5078302;28;45312;-84
2022/03/13 05:29:16;;;;;;;;;4.00;4.00;;;;;8.90;66.94;100317.63;5086680;28;45242;-84
2022/03/13 05:31:43;;;;;;;;;6.25;6.25;;;;;8.78;66.68;100310.53;5089065;28;45389;-82
2022/03/13 05:34:09;;;;;;;;;3.75;3.75;;;;;8.71;66.23;100308.72;5081351;28;45822;-83
2022/03/13 05:36:35;;;;;;;;;6.00;6.00;;;;;8.67;66.32;100306.94;5082997;28;45279;-82
2022/03/13 05:39:00;;;;;;;;;3.75;3.75;;;;;8.76;67.25;100320.16;5074221;28;45524;-82
2022/03/13 05:41:26;;;;;;;;;6.00;6.00;;;;;8.75;66.44;100316.66;5078586;28;46715;-82
2022/03/13 05:43:52;;;;;;;;;5.25;5.25;;;;;8.70;66.63;100315.72;5063002;28;45165;-78
2022/03/13 05:46:18;;;;;;;;;5.25;5.25;;;;;8.79;66.55;100326.31;5060585;28;45215;-82
2022/03/13 05:48:44;;;;;;;;;4.50;4.50;;;;;8.79;67.07;100325.44;5060163;28;45496;-83
2022/03/13 05:51:09;;;;;;;;;6.00;6.00;;;;;8.74;66.82;100322.75;5059140;28;46274;-83
2022/03/13 05:53:35;;;;;;;;;4.00;4.00;;;;;8.70;67.04;100325.34;5060003;28;45390;-82
2022/03/13 05:56:00;;;;;;;;;9.25;6.25;;;;;8.69;66.56;100323.59;5060799;28;45385;-83
2022/03/13 05:58:25;;;;;;;;;3.00;3.00;;;;;8.63;66.78;100323.53;5056749;28;45494;-81
2022/03/13 06:01:06;;;;;;;;;3.50;3.50;;;;;8.60;66.72;100329.66;5078254;28;45404;-79
2022/03/13 06:03:33;;;;;;;;;4.25;4.25;;;;;8.55;66.98;100326.09;5075925;28;45516;-80
2022/03/13 06:06:01;;;;;;;;;6.50;6.50;;;;;8.54;67.69;100326.94;5040765;28;45320;-81
2022/03/13 06:08:26;;;;;;;;;4.00;4.00;;;;;8.64;67.22;100334.03;5060153;28;45256;-81
2022/03/13 06:10:52;;;;;;;;;7.50;7.50;;;;;8.66;67.49;100331.47;5076702;28;45340;-81
2022/03/13 06:13:18;;;;;;;;;6.50;3.50;;;;;8.53;67.20;100320.81;5080331;28;45385;-83
2022/03/13 06:15:43;;;;;;;;;4.00;4.00;;;;;8.70;66.84;100331.47;5085378;28;45377;-80
2022/03/13 06:18:10;;;;;;;;;3.00;2.00;;;;;8.68;66.76;100332.34;5084656;28;45180;-83
2022/03/13 06:20:36;;;;;;;;;7.00;4.00;;;;;8.66;67.04;100319.22;5068607;28;45447;-83
2022/03/13 06:23:01;;;;;;;;;8.00;7.50;;;;;8.78;66.20;100335.06;5078041;28;45246;-81
2022/03/13 06:25:27;;;;;;;;;6.25;6.00;;;;;8.77;66.61;100353.44;5080151;28;45412;-82
2022/03/13 06:27:52;;;;;;;;;8.00;7.00;;;;;8.78;66.24;100335.06;5061932;28;45362;-81
2022/03/13 06:30:20;;;;;;;;;5.00;5.00;;;;;8.84;66.14;100344.72;5074308;28;45495;-82
2022/03/13 06:32:50;;;;;;;;;4.00;4.00;;;;;8.84;65.97;100353.50;5079075;28;45373;-82
2022/03/13 06:35:17;;;;;;;;;4.00;4.00;;;;;8.87;65.82;100344.75;5055848;28;45289;-81
2022/03/13 06:37:43;;;;;;;;;6.25;5.00;;;;;8.92;66.13;100350.91;5066682;28;45372;-82
2022/03/13 06:40:10;;;;;;;;;8.75;6.75;;;;;8.84;65.65;100337.75;5057069;28;47076;-82
2022/03/13 06:42:36;;;;;;;;;6.75;6.00;;;;;8.94;65.92;100350.94;5077579;28;45454;-83
2022/03/13 06:45:03;;;;;;;;;6.00;4.00;;;;;8.98;65.39;100347.47;5075854;28;45447;-81
2022/03/13 06:47:28;;;;;;;;;4.00;4.00;;;;;8.85;65.44;100341.25;5077689;28;45391;-83
2022/03/13 06:49:53;;;;;;;;;4.50;4.50;;;;;8.95;65.53;100355.31;5062989;28;46784;-81
2022/03/13 06:52:19;;;;;;;;;3.50;3.50;;;;;9.00;65.52;100353.59;5078914;28;45448;-78
2022/03/13 06:54:45;;;;;;;;;6.75;6.00;;;;;8.93;65.28;100359.66;5080867;28;45402;-78
2022/03/13 06:57:14;;;;;;;;;7.00;4.00;;;;;8.88;64.68;100335.13;5033373;28;1250873;-80
2022/03/13 06:59:40;;;;;;;;;4.00;4.00;;;;;9.08;64.78;100346.66;5078065;28;45583;-78
2022/03/13 07:02:07;;;;;;;;;8.25;7.00;;;;;9.10;64.61;100345.78;5075347;28;45444;-78
2022/03/13 07:04:32;;;;;;;;;3.00;3.00;;;;;9.12;64.46;100358.97;5066180;28;45566;-79
2022/03/13 07:06:58;;;;;;;;;4.75;3.25;;;;;9.06;64.44;100349.28;5057702;28;45341;-76
2022/03/13 07:09:25;;;;;;;;;3.00;2.50;;;;;8.96;64.55;100313.31;5068566;28;45328;-78
2022/03/13 07:11:50;;;;;;;;;5.50;5.50;;;;;9.29;63.70;100356.44;5041849;28;45479;-82
2022/03/13 07:14:17;;;;;;;;;3.75;3.00;;;;;9.35;63.88;100354.72;5066306;28;45517;-82
2022/03/13 07:16:42;;;;;;;;;7.50;5.00;;;;;9.40;63.49;100355.66;5078385;28;45222;-79
2022/03/13 07:19:08;;;;;;;;;6.00;3.75;;;;;9.41;63.30;100356.53;5078128;28;45313;-80
2022/03/13 07:21:33;;;;;;;;;4.00;3.50;;;;;9.36;63.19;100329.31;5070521;28;45489;-80
2022/03/13 07:23:59;;;;;;;;;1.75;1.75;;;;;9.49;63.42;100325.00;5077963;28;45855;-80
2022/03/13 07:26:24;;;;;;;;;3.00;3.00;;;;;9.75;62.34;100331.25;5078353;28;45402;-81
2022/03/13 07:28:50;;;;;;;;;4.00;4.00;;;;;9.98;61.67;100341.88;5077790;28;45421;-81
2022/03/13 07:31:15;;;;;;;;;4.00;2.75;;;;;10.10;60.25;100341.91;5077912;28;45294;-79
2022/03/13 07:33:41;;;;;;;;;3.00;3.00;;;;;9.91;60.59;100335.72;5075847;28;45538;-83
2022/03/13 07:36:06;;;;;;;;;4.00;4.00;;;;;9.92;60.91;100345.34;5064327;28;45262;-80
2022/03/13 07:38:32;;;;;;;;;4.25;4.25;;;;;9.93;60.99;100356.75;5059049;28;46089;-79
2022/03/13 07:40:58;;;;;;;;;3.00;3.00;;;;;9.95;60.91;100348.00;5077849;28;45438;-81
2022/03/13 07:43:23;;;;;;;;;3.75;3.75;;;;;9.90;60.33;100362.03;5075469;28;45713;-82
2022/03/13 07:45:50;;;;;;;;;3.75;3.25;;;;;9.88;60.84;100362.03;5078214;28;45481;-80
2022/03/13 07:48:16;;;;;;;;;3.00;3.00;;;;;9.75;60.26;100367.19;5077569;28;45225;-79
2022/03/13 07:50:41;;;;;;;;;4.75;3.00;;;;;9.66;60.81;100339.97;5065881;28;45273;-80
2022/03/13 07:53:07;;;;;;;;;3.00;3.00;;;;;9.90;60.47;100368.16;5066006;28;45515;-81
2022/03/13 07:55:32;;;;;;;;;4.50;4.50;;;;;10.01;60.56;100365.56;5084904;28;45282;-81
2022/03/13 07:57:58;;;;;;;;;4.00;4.00;;;;;10.04;60.56;100355.03;5087400;28;45421;-83
2022/03/13 08:00:24;;;;;;;;;5.75;3.00;;;;;10.05;60.63;100359.47;5080678;28;45322;-84
2022/03/13 08:02:52;;;;;;;;;3.50;3.50;;;;;9.91;60.34;100343.59;5060125;28;45480;-82
2022/03/13 08:05:18;;;;;;;;;1.00;1.00;;;;;10.04;60.41;100359.44;5068968;27;45339;-82
2022/03/13 08:07:49;;;;;;;;;5.50;4.50;;;;;9.96;60.04;100348.91;5058369;28;47205;-80
2022/03/13 08:10:20;;;;;;;;;3.00;3.00;;;;;10.03;59.62;100350.66;5056857;28;45440;-78
2022/03/13 08:12:45;;;;;;;;;3.50;3.50;;;;;10.07;60.20;100331.38;5056636;28;45241;-80
2022/03/13 08:15:11;;;;;;;;;3.00;3.00;;;;;10.36;58.97;100357.81;5057940;28;45597;-82
2022/03/13 08:17:36;;;;;;;;;3.75;3.75;;;;;10.42;58.62;100335.88;5057118;28;46444;-80
2022/03/13 08:20:06;;;;;;;;;3.75;3.75;;;;;10.34;59.07;100341.13;5056926;28;45335;-78
2022/03/13 08:22:31;;;;;;;;;8.25;6.75;;;;;10.28;59.38;100344.63;5058782;28;45326;-78
2022/03/13 08:24:57;;;;;;;;;6.50;3.75;;;;;10.38;59.20;100349.91;5064334;28;45376;-79
2022/03/13 08:27:23;;;;;;;;;2.25;2.25;;;;;10.46;59.02;100343.78;5060918;28;46148;-83
2022/03/13 08:29:48;;;;;;;;;3.00;3.00;;;;;10.52;58.31;100335.03;5073823;28;45532;-78
2022/03/13 08:32:15;;;;;;;;;4.00;2.50;;;;;10.70;58.11;100334.13;5081083;28;45405;-79
2022/03/13 08:34:42;;;;;;;;;3.25;3.25;;;;;10.95;57.54;100328.00;5067845;28;45508;-82
2022/03/13 08:37:10;;;;;;;;;2.00;2.00;;;;;11.16;57.19;100327.06;5060948;28;46876;-76
2022/03/13 08:39:35;;;;;;;;;4.25;4.25;;;;;11.10;55.90;100309.53;5074668;28;45406;-78
2022/03/13 08:42:02;;;;;;;;;2.50;2.50;;;;;11.26;56.48;100336.75;5082348;28;45368;-76
2022/03/13 08:44:27;;;;;;;;;3.00;3.00;;;;;11.30;56.54;100327.94;5061321;28;45484;-78
2022/03/13 08:46:52;;;;;;;;;2.75;2.00;;;;;11.41;55.41;100344.63;5063368;28;45935;-79
2022/03/13 08:49:18;;;;;;;;;3.50;2.00;;;;;11.54;55.63;100332.28;5080438;28;45301;-78
2022/03/13 08:51:43;;;;;;;;;3.75;2.00;;;;;11.63;54.88;100327.00;5080597;28;45344;-78
2022/03/13 08:54:09;;;;;;;;;4.50;3.00;;;;;11.93;53.90;100331.28;5080451;28;45455;-77
2022/03/13 08:56:35;;;;;;;;;4.25;3.00;;;;;12.30;53.07;100325.81;5075942;28;45804;-80
2022/03/13 08:59:01;;;;;;;;;1.75;1.75;;;;;12.39;53.05;100324.88;5059578;28;45339;-79
2022/03/13 09:01:27;;;;;;;;;3.75;3.00;;;;;12.51;51.39;100303.66;5061258;28;45461;-79
2022/03/13 09:03:52;;;;;;;;;2.75;2.00;;;;;12.86;50.91;100306.00;5059744;28;45444;-81
2022/03/13 09:06:17;;;;;;;;;1.50;1.50;;;;;14.31;47.63;100324.63;5064299;28;46185;-79
2022/03/13 09:08:43;;;;;;;;;3.00;3.00;;;;;14.91;45.87;100316.66;5080640;28;45223;-81
2022/03/13 09:11:09;;;;;;;;;2.00;2.00;;;;;15.17;45.40;100329.44;5076114;28;45299;-77
2022/03/13 09:13:36;;;;;;;;;1.00;1.00;;;;;15.95;44.25;100334.16;5069018;28;45340;-77
2022/03/13 09:16:02;;;;;;;;;1.25;1.00;;;;;16.33;43.67;100332.44;5063653;28;46234;-78
2022/03/13 09:18:27;;;;;;;;;4.00;2.75;;;;;16.62;41.98;100337.09;5080252;28;45301;-77
2022/03/13 09:20:53;;;;;;;;;2.00;2.00;;;;;16.25;42.61;100336.16;5078063;27;45354;-77
2022/03/13 09:23:18;;;;;;;;;2.00;2.00;;;;;16.13;42.68;100339.09;5063416;28;45568;-82
2022/03/13 09:25:43;;;;;;;;;2.00;2.00;;;;;17.06;39.65;100339.56;5066812;28;45527;-79
2022/03/13 09:28:10;;;;;;;;;3.00;1.75;;;;;17.07;38.86;100346.63;5059786;28;45852;-82
2022/03/13 09:30:36;;;;;;;;;3.00;2.00;;;;;16.32;40.43;100334.22;5059915;28;45443;-77
2022/03/13 09:33:01;;;;;;;;;2.00;2.00;;;;;15.48;42.13;100343.03;5075261;28;45582;-80
2022/03/13 09:35:27;;;;;;;;;2.00;1.00;;;;;15.30;43.31;100334.50;5077577;28;45594;-82
2022/03/13 09:37:52;;;;;;;;;2.75;2.75;;;;;15.70;42.63;100335.56;5062213;28;45536;-83
2022/03/13 09:40:19;;;;;;;;;2.00;2.00;;;;;15.08;43.88;100339.34;5060708;28;45477;-82
2022/03/13 09:42:46;;;;;;;;;0.00;0.00;;;;;14.49;44.41;100338.50;5060433;28;45493;-82
2022/03/13 09:45:13;;;;;;;;;2.00;2.00;;;;;14.13;45.56;100336.34;5057721;28;46510;-77
2022/03/13 09:47:38;;;;;;;;;1.00;1.00;;;;;13.83;45.92;100282.03;5057573;28;45512;-83
2022/03/13 09:50:11;;;;;;;;;1.00;1.00;;;;;14.17;46.31;100327.47;5071233;28;45632;-80
2022/03/13 09:52:40;;;;;;;;;2.25;2.25;;;;;14.56;45.50;100327.84;5069539;28;45393;-84
2022/03/13 09:55:06;;;;;;;;;1.00;1.00;;;;;14.50;45.25;100329.66;5061199;28;45363;-83
2022/03/13 09:57:33;;;;;;;;;2.00;2.00;;;;;14.32;45.72;100313.13;5060370;28;45547;-81
2022/03/13 09:59:59;;;;;;;;;3.75;3.75;;;;;14.37;46.28;100343.97;5079095;28;45386;-82
2022/03/13 10:02:35;;;;;;;;;2.50;2.50;;;;;14.19;46.79;100350.41;5079902;28;45442;-82
2022/03/13 10:05:16;;;;;;;;;2.50;2.00;;;;;13.75;46.65;100294.50;5082108;28;45491;-80
2022/03/13 10:07:59;;;;;;;;;1.00;1.00;;;;;13.42;47.79;100325.75;5067043;28;45397;-80
2022/03/13 10:10:28;;;;;;;;;1.50;1.25;;;;;13.08;48.20;100304.03;5063645;28;45472;-80
2022/03/13 10:12:54;;;;;;;;;2.00;2.00;;;;;12.92;48.69;100289.19;5057100;28;45248;-79
2022/03/13 10:15:20;;;;;;;;;2.00;2.00;;;;;13.34;48.50;100348.78;5055560;28;45570;-77
2022/03/13 10:17:45;;;;;;;;;2.00;2.00;;;;;13.07;48.34;100289.06;5057406;28;45429;-77
2022/03/13 10:20:23;;;;;;;;;2.50;2.50;;;;;13.21;48.39;100304.81;5058811;28;45572;-79
2022/03/13 10:23:02;;;;;;;;;3.00;3.00;;;;;13.39;48.47;100342.53;5059364;28;45537;-80
2022/03/13 10:25:38;;;;;;;;;1.75;1.50;;;;;12.92;48.76;100279.50;5066450;28;46315;-77
2022/03/13 10:28:32;;;;;;;;;2.00;2.00;;;;;13.22;48.91;100340.97;5075023;28;45302;-80
2022/03/13 10:30:58;;;;;;;;;3.00;3.00;;;;;13.17;49.54;100338.31;5058672;28;45305;-81
2022/03/13 10:33:23;;;;;;;;;2.25;2.25;;;;;12.96;49.10;100312.97;5057913;28;45381;-78
2022/03/13 10:35:48;;;;;;;;;2.00;2.00;;;;;13.08;49.73;100323.41;5057640;28;45542;-77
2022/03/13 10:38:19;;;;;;;;;2.25;2.00;;;;;13.03;49.46;100329.66;5061441;28;45385;-76
2022/03/13 10:40:49;;;;;;;;;2.00;2.00;;;;;12.83;50.18;100335.97;5058120;28;45242;-76
2022/03/13 10:43:19;;;;;;;;;3.00;3.00;;;;;12.84;50.61;100326.25;5060632;28;45814;-77
2022/03/13 10:45:51;;;;;;;;;1.75;1.75;;;;;12.82;50.13;100330.69;5069189;28;45419;-81
2022/03/13 10:48:23;;;;;;;;;2.50;2.50;;;;;12.75;50.24;100342.19;5060736;28;45620;-79
2022/03/13 10:50:51;;;;;;;;;2.50;2.25;;;;;12.70;50.06;100330.81;5066893;28;45618;-80
2022/03/13 10:53:18;;;;;;;;;1.50;1.50;;;;;12.32;51.06;100265.03;5067261;28;45473;-78
2022/03/13 10:55:58;;;;;;;;;1.50;1.50;;;;;12.61;50.61;100315.03;5061449;28;46209;-75
2022/03/13 10:58:29;;;;;;;;;2.00;2.00;;;;;12.66;50.34;100300.03;5062434;28;45491;-79
2022/03/13 11:01:10;;;;;;;;;2.75;1.00;;;;;12.84;50.54;100323.63;5075017;28;45385;-76
2022/03/13 11:03:47;;;;;;;;;3.75;2.00;;;;;12.83;50.20;100314.81;5056931;28;45404;-78
2022/03/13 11:06:12;;;;;;;;;2.00;2.00;;;;;12.65;50.43;100300.88;5071305;28;45690;-79
2022/03/13 11:08:37;;;;;;;;;2.00;2.00;;;;;12.71;50.22;100322.84;5073903;28;45281;-77
2022/03/13 11:11:03;;;;;;;;;3.50;3.50;;;;;12.72;50.70;100327.25;5058320;28;45394;-79
2022/03/13 11:13:31;;;;;;;;;6.00;5.00;;;;;12.79;50.50;100334.25;5071586;28;45459;-80
2022/03/13 11:15:57;;;;;;;;;2.50;2.50;;;;;12.81;50.42;100332.47;5073628;28;46073;-81
2022/03/13 11:18:29;;;;;;;;;2.25;2.25;;;;;12.87;50.75;100322.75;5072061;28;45464;-79
2022/03/13 11:20:54;;;;;;;;;3.00;1.75;;;;;12.89;50.01;100319.19;5065745;28;45459;-79
2022/03/13 11:23:20;;;;;;;;;2.00;2.00;;;;;12.84;50.20;100315.69;5057115;28;45440;-77
2022/03/13 11:25:47;;;;;;;;;2.00;1.50;;;;;12.93;50.55;100322.66;5057873;28;45843;-78
2022/03/13 11:28:13;;;;;;;;;3.50;2.50;;;;;12.96;49.76;100318.25;5057760;28;45373;-76